sensor_id;sensor_type;location;lat;lon;timestamp;temperature;humidity
21331;DHT22;10824;51.632;4.950;2022-08-01T00:00:36;20.20;99.90
21331;DHT22;10824;51.632;4.950;2022-08-01T00:03:03;20.20;99.90
21331;DHT22;10824;51.632;4.950;2022-08-01T00:05:31;20.30;99.90
21331;DHT22;10824;51.632;4.950;2022-08-01T00:07:58;20.30;99.90
21331;DHT22;10824;51.632;4.950;2022-08-01T00:10:26;20.30;99.90
21331;DHT22;10824;51.632;4.950;2022-08-01T00:12:53;20.30;99.90
21331;DHT22;10824;51.632;4.950;2022-08-01T00:15:20;20.30;99.90
21331;DHT22;10824;51.632;4.950;2022-08-01T00:17:47;20.20;99.90
21331;DHT22;10824;51.632;4.950;2022-08-01T00:20:14;20.20;99.90
21331;DHT22;10824;51.632;4.950;2022-08-01T00:22:41;20.20;99.90
21331;DHT22;10824;51.632;4.950;2022-08-01T00:25:09;20.20;99.90
21331;DHT22;10824;51.632;4.950;2022-08-01T00:27:36;20.20;99.90
21331;DHT22;10824;51.632;4.950;2022-08-01T00:30:04;20.10;99.90
21331;DHT22;10824;51.632;4.950;2022-08-01T00:32:41;20.10;99.90
21331;DHT22;10824;51.632;4.950;2022-08-01T00:35:09;20.10;99.90
21331;DHT22;10824;51.632;4.950;2022-08-01T00:37:36;20.20;99.90
21331;DHT22;10824;51.632;4.950;2022-08-01T00:40:03;20.10;99.90
21331;DHT22;10824;51.632;4.950;2022-08-01T00:42:31;20.10;99.90
21331;DHT22;10824;51.632;4.950;2022-08-01T00:44:58;20.10;99.90
21331;DHT22;10824;51.632;4.950;2022-08-01T00:47:25;20.10;99.90
21331;DHT22;10824;51.632;4.950;2022-08-01T00:49:52;20.00;99.90
21331;DHT22;10824;51.632;4.950;2022-08-01T00:52:19;20.00;99.90
21331;DHT22;10824;51.632;4.950;2022-08-01T00:54:48;20.00;99.90
21331;DHT22;10824;51.632;4.950;2022-08-01T00:57:15;20.00;99.90
21331;DHT22;10824;51.632;4.950;2022-08-01T01:00:03;20.00;99.90
21331;DHT22;10824;51.632;4.950;2022-08-01T01:02:31;20.00;99.90
21331;DHT22;10824;51.632;4.950;2022-08-01T01:04:59;20.00;99.90
21331;DHT22;10824;51.632;4.950;2022-08-01T01:13:37;20.00;99.90
21331;DHT22;10824;51.632;4.950;2022-08-01T01:16:19;19.90;99.90
21331;DHT22;10824;51.632;4.950;2022-08-01T01:18:52;20.00;99.90
21331;DHT22;10824;51.632;4.950;2022-08-01T01:26:45;19.90;99.90
21331;DHT22;10824;51.632;4.950;2022-08-01T01:31:51;19.90;99.90
21331;DHT22;10824;51.632;4.950;2022-08-01T01:34:22;19.90;99.90
21331;DHT22;10824;51.632;4.950;2022-08-01T01:36:54;19.90;99.90
21331;DHT22;10824;51.632;4.950;2022-08-01T01:39:24;19.90;99.90
21331;DHT22;10824;51.632;4.950;2022-08-01T01:41:53;19.90;99.90
21331;DHT22;10824;51.632;4.950;2022-08-01T01:44:21;19.80;99.90
21331;DHT22;10824;51.632;4.950;2022-08-01T01:46:50;19.70;99.90
21331;DHT22;10824;51.632;4.950;2022-08-01T01:49:21;19.80;99.90
21331;DHT22;10824;51.632;4.950;2022-08-01T01:51:51;19.70;99.90
21331;DHT22;10824;51.632;4.950;2022-08-01T01:54:32;19.70;99.90
21331;DHT22;10824;51.632;4.950;2022-08-01T01:57:02;19.70;99.90
21331;DHT22;10824;51.632;4.950;2022-08-01T01:59:33;19.70;99.90
21331;DHT22;10824;51.632;4.950;2022-08-01T02:02:03;19.70;99.90
21331;DHT22;10824;51.632;4.950;2022-08-01T02:04:40;19.70;99.90
21331;DHT22;10824;51.632;4.950;2022-08-01T02:07:11;19.70;99.90
21331;DHT22;10824;51.632;4.950;2022-08-01T02:09:40;19.70;99.90
21331;DHT22;10824;51.632;4.950;2022-08-01T02:12:10;19.70;99.90
21331;DHT22;10824;51.632;4.950;2022-08-01T02:14:39;19.70;99.90
21331;DHT22;10824;51.632;4.950;2022-08-01T02:17:09;19.70;99.90
21331;DHT22;10824;51.632;4.950;2022-08-01T02:19:37;19.70;99.90
21331;DHT22;10824;51.632;4.950;2022-08-01T02:22:09;19.70;99.90
21331;DHT22;10824;51.632;4.950;2022-08-01T02:24:47;19.70;99.90
21331;DHT22;10824;51.632;4.950;2022-08-01T02:27:20;19.70;99.90
21331;DHT22;10824;51.632;4.950;2022-08-01T02:29:58;19.70;99.90
21331;DHT22;10824;51.632;4.950;2022-08-01T02:35:00;19.70;99.90
21331;DHT22;10824;51.632;4.950;2022-08-01T02:37:31;19.70;99.90
21331;DHT22;10824;51.632;4.950;2022-08-01T02:40:00;19.70;99.90
21331;DHT22;10824;51.632;4.950;2022-08-01T02:42:28;19.70;99.90
21331;DHT22;10824;51.632;4.950;2022-08-01T02:44:57;19.70;99.90
21331;DHT22;10824;51.632;4.950;2022-08-01T02:47:27;19.60;99.90
21331;DHT22;10824;51.632;4.950;2022-08-01T02:49:55;19.60;99.90
21331;DHT22;10824;51.632;4.950;2022-08-01T02:52:24;19.60;99.90
21331;DHT22;10824;51.632;4.950;2022-08-01T02:54:54;19.60;99.90
21331;DHT22;10824;51.632;4.950;2022-08-01T02:57:23;19.60;99.90
21331;DHT22;10824;51.632;4.950;2022-08-01T03:00:11;19.50;99.90
21331;DHT22;10824;51.632;4.950;2022-08-01T03:02:39;19.50;99.90
21331;DHT22;10824;51.632;4.950;2022-08-01T03:05:07;19.60;99.90
21331;DHT22;10824;51.632;4.950;2022-08-01T03:07:36;19.60;99.90
21331;DHT22;10824;51.632;4.950;2022-08-01T03:10:06;19.50;99.90
21331;DHT22;10824;51.632;4.950;2022-08-01T03:12:35;19.60;99.90
21331;DHT22;10824;51.632;4.950;2022-08-01T03:15:03;19.50;99.90
21331;DHT22;10824;51.632;4.950;2022-08-01T03:17:32;19.50;99.90
21331;DHT22;10824;51.632;4.950;2022-08-01T03:20:02;19.50;99.90
21331;DHT22;10824;51.632;4.950;2022-08-01T03:22:30;19.50;99.90
21331;DHT22;10824;51.632;4.950;2022-08-01T03:24:59;19.50;99.90
21331;DHT22;10824;51.632;4.950;2022-08-01T03:27:28;19.50;99.90
21331;DHT22;10824;51.632;4.950;2022-08-01T03:29:58;19.40;99.90
21331;DHT22;10824;51.632;4.950;2022-08-01T03:32:27;19.30;99.90
21331;DHT22;10824;51.632;4.950;2022-08-01T03:34:55;19.30;99.90
21331;DHT22;10824;51.632;4.950;2022-08-01T03:37:27;19.40;99.90
21331;DHT22;10824;51.632;4.950;2022-08-01T03:42:36;19.30;99.90
21331;DHT22;10824;51.632;4.950;2022-08-01T03:45:08;19.20;99.90
21331;DHT22;10824;51.632;4.950;2022-08-01T03:47:43;19.20;99.90
21331;DHT22;10824;51.632;4.950;2022-08-01T03:50:12;19.20;99.90
21331;DHT22;10824;51.632;4.950;2022-08-01T03:52:42;19.20;99.90
21331;DHT22;10824;51.632;4.950;2022-08-01T03:55:11;19.20;99.90
21331;DHT22;10824;51.632;4.950;2022-08-01T03:57:39;19.20;99.90
21331;DHT22;10824;51.632;4.950;2022-08-01T04:00:07;19.20;99.90
21331;DHT22;10824;51.632;4.950;2022-08-01T04:02:39;19.20;99.90
21331;DHT22;10824;51.632;4.950;2022-08-01T04:05:07;19.20;99.90
21331;DHT22;10824;51.632;4.950;2022-08-01T04:07:34;19.20;99.90
21331;DHT22;10824;51.632;4.950;2022-08-01T04:10:06;19.20;99.90
21331;DHT22;10824;51.632;4.950;2022-08-01T04:12:34;19.20;99.90
21331;DHT22;10824;51.632;4.950;2022-08-01T04:15:05;19.30;99.90
21331;DHT22;10824;51.632;4.950;2022-08-01T04:17:32;19.20;99.90
21331;DHT22;10824;51.632;4.950;2022-08-01T04:19:59;19.20;99.90
21331;DHT22;10824;51.632;4.950;2022-08-01T04:22:26;19.20;99.90
21331;DHT22;10824;51.632;4.950;2022-08-01T04:24:55;19.20;99.90
21331;DHT22;10824;51.632;4.950;2022-08-01T04:27:37;19.20;99.90
21331;DHT22;10824;51.632;4.950;2022-08-01T04:30:20;19.20;99.90
21331;DHT22;10824;51.632;4.950;2022-08-01T04:32:49;19.20;99.90
21331;DHT22;10824;51.632;4.950;2022-08-01T04:35:20;19.20;99.90
21331;DHT22;10824;51.632;4.950;2022-08-01T04:38:19;19.20;99.90
21331;DHT22;10824;51.632;4.950;2022-08-01T04:40:50;19.10;99.90
21331;DHT22;10824;51.632;4.950;2022-08-01T04:43:18;19.10;99.90
21331;DHT22;10824;51.632;4.950;2022-08-01T04:45:47;19.20;99.90
21331;DHT22;10824;51.632;4.950;2022-08-01T04:48:17;19.20;99.90
21331;DHT22;10824;51.632;4.950;2022-08-01T04:50:49;19.20;99.90
21331;DHT22;10824;51.632;4.950;2022-08-01T04:53:17;19.30;99.90
21331;DHT22;10824;51.632;4.950;2022-08-01T04:55:45;19.30;99.90
21331;DHT22;10824;51.632;4.950;2022-08-01T04:58:15;19.30;99.90
21331;DHT22;10824;51.632;4.950;2022-08-01T05:00:48;19.30;99.90
21331;DHT22;10824;51.632;4.950;2022-08-01T05:03:15;19.30;99.90
21331;DHT22;10824;51.632;4.950;2022-08-01T05:05:42;19.30;99.90
21331;DHT22;10824;51.632;4.950;2022-08-01T05:08:09;19.40;99.90
21331;DHT22;10824;51.632;4.950;2022-08-01T05:10:36;19.30;99.90
21331;DHT22;10824;51.632;4.950;2022-08-01T05:13:03;19.30;99.90
21331;DHT22;10824;51.632;4.950;2022-08-01T05:15:30;19.40;99.90
21331;DHT22;10824;51.632;4.950;2022-08-01T05:17:57;19.50;99.90
21331;DHT22;10824;51.632;4.950;2022-08-01T05:20:24;19.50;99.90
21331;DHT22;10824;51.632;4.950;2022-08-01T05:22:51;19.40;99.90
21331;DHT22;10824;51.632;4.950;2022-08-01T05:25:19;19.40;99.90
21331;DHT22;10824;51.632;4.950;2022-08-01T05:28:06;19.40;99.90
21331;DHT22;10824;51.632;4.950;2022-08-01T05:30:34;19.40;99.90
21331;DHT22;10824;51.632;4.950;2022-08-01T05:33:01;19.50;99.90
21331;DHT22;10824;51.632;4.950;2022-08-01T05:35:28;19.60;99.90
21331;DHT22;10824;51.632;4.950;2022-08-01T05:38:15;19.60;99.90
21331;DHT22;10824;51.632;4.950;2022-08-01T05:40:42;19.70;99.90
21331;DHT22;10824;51.632;4.950;2022-08-01T05:43:09;19.60;99.90
21331;DHT22;10824;51.632;4.950;2022-08-01T05:45:36;19.60;99.90
21331;DHT22;10824;51.632;4.950;2022-08-01T05:48:03;19.50;99.90
21331;DHT22;10824;51.632;4.950;2022-08-01T05:50:30;19.60;99.90
21331;DHT22;10824;51.632;4.950;2022-08-01T05:52:59;19.60;99.90
21331;DHT22;10824;51.632;4.950;2022-08-01T05:55:26;19.60;99.90
21331;DHT22;10824;51.632;4.950;2022-08-01T05:57:53;19.70;99.90
21331;DHT22;10824;51.632;4.950;2022-08-01T06:00:20;19.80;99.90
21331;DHT22;10824;51.632;4.950;2022-08-01T06:02:47;19.80;99.90
21331;DHT22;10824;51.632;4.950;2022-08-01T06:05:15;19.90;99.90
21331;DHT22;10824;51.632;4.950;2022-08-01T06:07:42;19.80;99.90
21331;DHT22;10824;51.632;4.950;2022-08-01T06:10:09;19.90;99.90
21331;DHT22;10824;51.632;4.950;2022-08-01T06:12:37;19.80;99.90
21331;DHT22;10824;51.632;4.950;2022-08-01T06:15:11;19.70;99.90
21331;DHT22;10824;51.632;4.950;2022-08-01T06:17:38;19.80;99.90
21331;DHT22;10824;51.632;4.950;2022-08-01T06:20:07;19.70;99.90
21331;DHT22;10824;51.632;4.950;2022-08-01T06:22:40;19.70;99.90
21331;DHT22;10824;51.632;4.950;2022-08-01T06:25:10;19.70;99.90
21331;DHT22;10824;51.632;4.950;2022-08-01T06:27:37;19.70;99.90
21331;DHT22;10824;51.632;4.950;2022-08-01T06:30:07;19.70;99.90
21331;DHT22;10824;51.632;4.950;2022-08-01T06:32:43;19.80;99.90
21331;DHT22;10824;51.632;4.950;2022-08-01T06:35:11;19.80;99.90
21331;DHT22;10824;51.632;4.950;2022-08-01T06:37:38;19.80;99.90
21331;DHT22;10824;51.632;4.950;2022-08-01T06:40:07;19.80;99.90
21331;DHT22;10824;51.632;4.950;2022-08-01T06:42:40;19.80;99.90
21331;DHT22;10824;51.632;4.950;2022-08-01T06:45:09;19.90;99.90
21331;DHT22;10824;51.632;4.950;2022-08-01T06:47:48;19.90;99.90
21331;DHT22;10824;51.632;4.950;2022-08-01T06:50:17;20.10;99.90
21331;DHT22;10824;51.632;4.950;2022-08-01T06:52:44;20.10;99.90
21331;DHT22;10824;51.632;4.950;2022-08-01T06:55:11;20.20;99.90
21331;DHT22;10824;51.632;4.950;2022-08-01T06:57:49;20.20;99.90
21331;DHT22;10824;51.632;4.950;2022-08-01T07:00:18;20.20;99.90
21331;DHT22;10824;51.632;4.950;2022-08-01T07:02:54;20.20;99.90
21331;DHT22;10824;51.632;4.950;2022-08-01T07:05:21;20.30;99.90
21331;DHT22;10824;51.632;4.950;2022-08-01T07:07:49;20.20;99.90
21331;DHT22;10824;51.632;4.950;2022-08-01T07:10:17;20.30;99.90
21331;DHT22;10824;51.632;4.950;2022-08-01T07:12:44;20.30;99.90
21331;DHT22;10824;51.632;4.950;2022-08-01T07:15:11;20.30;99.90
21331;DHT22;10824;51.632;4.950;2022-08-01T07:17:39;20.40;99.90
21331;DHT22;10824;51.632;4.950;2022-08-01T07:20:08;20.40;99.90
21331;DHT22;10824;51.632;4.950;2022-08-01T07:22:37;20.60;99.90
21331;DHT22;10824;51.632;4.950;2022-08-01T07:25:05;20.60;99.90
21331;DHT22;10824;51.632;4.950;2022-08-01T07:27:32;20.70;99.90
21331;DHT22;10824;51.632;4.950;2022-08-01T07:30:00;20.90;99.90
21331;DHT22;10824;51.632;4.950;2022-08-01T07:32:27;21.10;99.90
21331;DHT22;10824;51.632;4.950;2022-08-01T07:34:55;21.10;99.90
21331;DHT22;10824;51.632;4.950;2022-08-01T07:37:23;21.10;99.90
21331;DHT22;10824;51.632;4.950;2022-08-01T07:40:10;21.00;99.90
21331;DHT22;10824;51.632;4.950;2022-08-01T07:42:38;21.10;99.90
21331;DHT22;10824;51.632;4.950;2022-08-01T07:45:05;21.10;99.90
21331;DHT22;10824;51.632;4.950;2022-08-01T07:47:32;21.20;99.80
21331;DHT22;10824;51.632;4.950;2022-08-01T07:50:00;21.40;99.90
21331;DHT22;10824;51.632;4.950;2022-08-01T07:52:27;21.50;98.50
21331;DHT22;10824;51.632;4.950;2022-08-01T07:54:54;21.60;98.80
21331;DHT22;10824;51.632;4.950;2022-08-01T07:57:23;21.50;97.60
21331;DHT22;10824;51.632;4.950;2022-08-01T07:59:51;21.70;96.60
21331;DHT22;10824;51.632;4.950;2022-08-01T08:02:18;21.60;95.30
21331;DHT22;10824;51.632;4.950;2022-08-01T08:04:45;21.70;96.40
21331;DHT22;10824;51.632;4.950;2022-08-01T08:07:15;22.00;97.30
21331;DHT22;10824;51.632;4.950;2022-08-01T08:09:42;22.00;96.50
21331;DHT22;10824;51.632;4.950;2022-08-01T08:12:16;21.90;95.80
21331;DHT22;10824;51.632;4.950;2022-08-01T08:14:44;21.80;97.40
21331;DHT22;10824;51.632;4.950;2022-08-01T08:17:11;21.80;96.60
21331;DHT22;10824;51.632;4.950;2022-08-01T08:19:39;21.60;96.30
21331;DHT22;10824;51.632;4.950;2022-08-01T08:22:08;21.60;97.50
21331;DHT22;10824;51.632;4.950;2022-08-01T08:24:37;21.70;98.50
21331;DHT22;10824;51.632;4.950;2022-08-01T08:27:11;21.80;99.10
21331;DHT22;10824;51.632;4.950;2022-08-01T08:29:40;21.90;98.20
21331;DHT22;10824;51.632;4.950;2022-08-01T08:32:07;22.00;97.80
21331;DHT22;10824;51.632;4.950;2022-08-01T08:34:35;22.10;97.50
21331;DHT22;10824;51.632;4.950;2022-08-01T08:37:02;21.90;97.90
21331;DHT22;10824;51.632;4.950;2022-08-01T08:39:30;22.40;98.60
21331;DHT22;10824;51.632;4.950;2022-08-01T08:42:08;22.80;96.10
21331;DHT22;10824;51.632;4.950;2022-08-01T08:44:36;22.60;95.40
21331;DHT22;10824;51.632;4.950;2022-08-01T08:47:03;22.70;92.60
21331;DHT22;10824;51.632;4.950;2022-08-01T08:49:35;23.10;94.40
21331;DHT22;10824;51.632;4.950;2022-08-01T08:52:04;23.00;93.30
21331;DHT22;10824;51.632;4.950;2022-08-01T08:54:36;23.20;92.60
21331;DHT22;10824;51.632;4.950;2022-08-01T08:57:04;23.20;90.80
21331;DHT22;10824;51.632;4.950;2022-08-01T08:59:32;23.10;91.30
21331;DHT22;10824;51.632;4.950;2022-08-01T09:01:59;22.70;93.50
21331;DHT22;10824;51.632;4.950;2022-08-01T09:04:26;22.50;94.70
21331;DHT22;10824;51.632;4.950;2022-08-01T09:06:54;22.30;97.70
21331;DHT22;10824;51.632;4.950;2022-08-01T09:09:23;22.20;97.80
21331;DHT22;10824;51.632;4.950;2022-08-01T09:11:50;22.10;97.70
21331;DHT22;10824;51.632;4.950;2022-08-01T09:14:26;21.60;99.70
21331;DHT22;10824;51.632;4.950;2022-08-01T09:17:07;21.50;99.90
21331;DHT22;10824;51.632;4.950;2022-08-01T09:19:37;21.30;99.90
21331;DHT22;10824;51.632;4.950;2022-08-01T09:22:13;21.30;99.90
21331;DHT22;10824;51.632;4.950;2022-08-01T09:24:41;21.60;99.90
21331;DHT22;10824;51.632;4.950;2022-08-01T09:27:21;21.50;99.90
21331;DHT22;10824;51.632;4.950;2022-08-01T09:29:53;21.50;99.70
21331;DHT22;10824;51.632;4.950;2022-08-01T09:32:30;21.30;99.90
21331;DHT22;10824;51.632;4.950;2022-08-01T09:35:26;21.00;99.90
21331;DHT22;10824;51.632;4.950;2022-08-01T09:38:13;21.10;99.90
21331;DHT22;10824;51.632;4.950;2022-08-01T09:40:53;21.30;99.90
21331;DHT22;10824;51.632;4.950;2022-08-01T09:43:23;21.50;99.90
21331;DHT22;10824;51.632;4.950;2022-08-01T09:45:53;21.60;99.90
21331;DHT22;10824;51.632;4.950;2022-08-01T09:48:21;21.00;99.90
21331;DHT22;10824;51.632;4.950;2022-08-01T09:50:57;21.40;99.90
21331;DHT22;10824;51.632;4.950;2022-08-01T09:53:48;21.50;99.90
21331;DHT22;10824;51.632;4.950;2022-08-01T09:56:20;21.50;99.40
21331;DHT22;10824;51.632;4.950;2022-08-01T10:01:25;22.00;98.40
21331;DHT22;10824;51.632;4.950;2022-08-01T10:06:36;21.70;96.70
21331;DHT22;10824;51.632;4.950;2022-08-01T10:09:03;21.70;96.00
21331;DHT22;10824;51.632;4.950;2022-08-01T10:11:32;22.10;95.10
21331;DHT22;10824;51.632;4.950;2022-08-01T10:14:05;22.10;95.40
21331;DHT22;10824;51.632;4.950;2022-08-01T10:16:35;22.50;93.20
21331;DHT22;10824;51.632;4.950;2022-08-01T10:19:06;22.00;94.80
21331;DHT22;10824;51.632;4.950;2022-08-01T10:21:42;22.00;96.30
21331;DHT22;10824;51.632;4.950;2022-08-01T10:24:27;22.40;93.90
21331;DHT22;10824;51.632;4.950;2022-08-01T10:27:08;22.50;91.90
21331;DHT22;10824;51.632;4.950;2022-08-01T10:30:00;22.80;91.90
21331;DHT22;10824;51.632;4.950;2022-08-01T10:32:48;22.60;87.80
21331;DHT22;10824;51.632;4.950;2022-08-01T10:35:17;22.30;90.50
21331;DHT22;10824;51.632;4.950;2022-08-01T10:38:05;22.40;90.50
21331;DHT22;10824;51.632;4.950;2022-08-01T10:40:43;22.20;88.50
21331;DHT22;10824;51.632;4.950;2022-08-01T10:43:11;22.20;91.60
21331;DHT22;10824;51.632;4.950;2022-08-01T10:45:47;22.60;90.70
21331;DHT22;10824;51.632;4.950;2022-08-01T10:48:20;22.50;90.80
21331;DHT22;10824;51.632;4.950;2022-08-01T10:50:52;22.70;88.90
21331;DHT22;10824;51.632;4.950;2022-08-01T10:53:21;22.40;88.20
21331;DHT22;10824;51.632;4.950;2022-08-01T10:58:35;23.00;86.40
21331;DHT22;10824;51.632;4.950;2022-08-01T11:01:20;23.30;85.10
21331;DHT22;10824;51.632;4.950;2022-08-01T11:06:54;23.30;81.50
21331;DHT22;10824;51.632;4.950;2022-08-01T11:09:28;23.20;81.30
21331;DHT22;10824;51.632;4.950;2022-08-01T11:12:18;23.50;79.60
21331;DHT22;10824;51.632;4.950;2022-08-01T11:17:33;23.50;78.60
21331;DHT22;10824;51.632;4.950;2022-08-01T11:20:09;23.20;78.20
21331;DHT22;10824;51.632;4.950;2022-08-01T11:31:31;23.70;72.30
21331;DHT22;10824;51.632;4.950;2022-08-01T11:34:05;23.70;67.60
21331;DHT22;10824;51.632;4.950;2022-08-01T11:36:36;23.70;65.90
21331;DHT22;10824;51.632;4.950;2022-08-01T11:39:23;24.10;64.20
21331;DHT22;10824;51.632;4.950;2022-08-01T11:41:51;24.30;55.90
21331;DHT22;10824;51.632;4.950;2022-08-01T11:44:22;24.10;57.90
21331;DHT22;10824;51.632;4.950;2022-08-01T11:46:59;24.20;68.20
21331;DHT22;10824;51.632;4.950;2022-08-01T11:54:40;23.90;60.70
21331;DHT22;10824;51.632;4.950;2022-08-01T11:57:13;24.00;53.80
21331;DHT22;10824;51.632;4.950;2022-08-01T11:59:49;24.00;51.70
21331;DHT22;10824;51.632;4.950;2022-08-01T12:02:38;23.70;50.80
21331;DHT22;10824;51.632;4.950;2022-08-01T12:05:08;23.60;51.50
21331;DHT22;10824;51.632;4.950;2022-08-01T12:07:39;24.40;49.70
21331;DHT22;10824;51.632;4.950;2022-08-01T12:10:11;24.70;36.10
21331;DHT22;10824;51.632;4.950;2022-08-01T12:12:58;24.70;37.10
21331;DHT22;10824;51.632;4.950;2022-08-01T12:15:36;23.70;37.20
21331;DHT22;10824;51.632;4.950;2022-08-01T12:18:05;23.90;42.80
21331;DHT22;10824;51.632;4.950;2022-08-01T12:20:36;24.20;37.80
21331;DHT22;10824;51.632;4.950;2022-08-01T12:23:10;23.90;37.10
21331;DHT22;10824;51.632;4.950;2022-08-01T12:25:38;23.80;38.80
21331;DHT22;10824;51.632;4.950;2022-08-01T12:28:11;24.30;35.70
21331;DHT22;10824;51.632;4.950;2022-08-01T12:30:42;24.30;31.00
21331;DHT22;10824;51.632;4.950;2022-08-01T12:33:09;24.40;31.70
21331;DHT22;10824;51.632;4.950;2022-08-01T12:35:38;24.50;32.50
21331;DHT22;10824;51.632;4.950;2022-08-01T12:38:07;24.50;33.50
21331;DHT22;10824;51.632;4.950;2022-08-01T12:40:45;24.00;32.50
21331;DHT22;10824;51.632;4.950;2022-08-01T12:43:19;24.40;29.60
21331;DHT22;10824;51.632;4.950;2022-08-01T12:45:56;24.70;29.30
21331;DHT22;10824;51.632;4.950;2022-08-01T12:48:25;25.00;27.80
21331;DHT22;10824;51.632;4.950;2022-08-01T12:50:53;25.40;27.00
21331;DHT22;10824;51.632;4.950;2022-08-01T12:53:24;25.10;24.50
21331;DHT22;10824;51.632;4.950;2022-08-01T12:56:08;25.00;23.40
21331;DHT22;10824;51.632;4.950;2022-08-01T12:58:38;24.90;24.40
21331;DHT22;10824;51.632;4.950;2022-08-01T13:01:07;25.00;23.00
21331;DHT22;10824;51.632;4.950;2022-08-01T13:03:35;25.10;21.70
21331;DHT22;10824;51.632;4.950;2022-08-01T13:06:13;25.20;21.70
21331;DHT22;10824;51.632;4.950;2022-08-01T13:08:43;25.10;23.70
21331;DHT22;10824;51.632;4.950;2022-08-01T13:11:13;24.80;26.90
21331;DHT22;10824;51.632;4.950;2022-08-01T13:13:46;24.90;29.30
21331;DHT22;10824;51.632;4.950;2022-08-01T13:16:23;24.80;29.20
21331;DHT22;10824;51.632;4.950;2022-08-01T13:19:13;24.90;24.60
21331;DHT22;10824;51.632;4.950;2022-08-01T13:21:54;25.10;24.60
21331;DHT22;10824;51.632;4.950;2022-08-01T13:24:26;25.50;19.10
21331;DHT22;10824;51.632;4.950;2022-08-01T13:26:58;25.60;21.00
21331;DHT22;10824;51.632;4.950;2022-08-01T13:29:35;24.90;24.90
21331;DHT22;10824;51.632;4.950;2022-08-01T13:32:18;25.50;19.50
21331;DHT22;10824;51.632;4.950;2022-08-01T13:35:14;25.20;18.30
21331;DHT22;10824;51.632;4.950;2022-08-01T13:37:48;25.10;18.60
21331;DHT22;10824;51.632;4.950;2022-08-01T13:40:25;25.30;19.40
21331;DHT22;10824;51.632;4.950;2022-08-01T13:42:54;25.30;20.30
21331;DHT22;10824;51.632;4.950;2022-08-01T13:45:23;24.40;23.40
21331;DHT22;10824;51.632;4.950;2022-08-01T13:47:52;24.70;19.40
21331;DHT22;10824;51.632;4.950;2022-08-01T13:50:39;25.00;15.90
21331;DHT22;10824;51.632;4.950;2022-08-01T13:53:06;25.00;16.00
21331;DHT22;10824;51.632;4.950;2022-08-01T13:55:35;25.60;12.00
21331;DHT22;10824;51.632;4.950;2022-08-01T13:58:02;25.40;13.20
21331;DHT22;10824;51.632;4.950;2022-08-01T14:00:30;25.80;11.20
21331;DHT22;10824;51.632;4.950;2022-08-01T14:02:57;25.60;12.80
21331;DHT22;10824;51.632;4.950;2022-08-01T14:05:25;24.80;15.50
21331;DHT22;10824;51.632;4.950;2022-08-01T14:07:52;24.20;18.40
21331;DHT22;10824;51.632;4.950;2022-08-01T14:10:25;24.30;19.20
21331;DHT22;10824;51.632;4.950;2022-08-01T14:12:54;24.40;16.50
21331;DHT22;10824;51.632;4.950;2022-08-01T14:15:22;24.80;13.70
21331;DHT22;10824;51.632;4.950;2022-08-01T14:18:08;25.60;8.90
21331;DHT22;10824;51.632;4.950;2022-08-01T14:20:37;26.00;7.50
21331;DHT22;10824;51.632;4.950;2022-08-01T14:23:04;25.60;6.20
21331;DHT22;10824;51.632;4.950;2022-08-01T14:25:39;25.30;6.70
21331;DHT22;10824;51.632;4.950;2022-08-01T14:28:27;25.40;8.30
21331;DHT22;10824;51.632;4.950;2022-08-01T14:30:58;25.40;10.60
21331;DHT22;10824;51.632;4.950;2022-08-01T14:33:26;25.70;8.20
21331;DHT22;10824;51.632;4.950;2022-08-01T14:35:54;25.90;6.50
21331;DHT22;10824;51.632;4.950;2022-08-01T14:38:41;26.10;7.10
21331;DHT22;10824;51.632;4.950;2022-08-01T14:41:12;26.50;4.60
21331;DHT22;10824;51.632;4.950;2022-08-01T14:43:39;26.20;5.40
21331;DHT22;10824;51.632;4.950;2022-08-01T14:46:07;25.60;6.30
21331;DHT22;10824;51.632;4.950;2022-08-01T14:48:36;25.30;8.00
21331;DHT22;10824;51.632;4.950;2022-08-01T14:51:03;25.60;6.40
21331;DHT22;10824;51.632;4.950;2022-08-01T14:53:31;25.80;3.90
21331;DHT22;10824;51.632;4.950;2022-08-01T14:56:03;25.70;1.90
21331;DHT22;10824;51.632;4.950;2022-08-01T14:58:31;25.70;1.00
21331;DHT22;10824;51.632;4.950;2022-08-01T15:00:58;26.00;1.00
21331;DHT22;10824;51.632;4.950;2022-08-01T15:03:26;26.20;1.30
21331;DHT22;10824;51.632;4.950;2022-08-01T15:05:53;26.90;1.00
21331;DHT22;10824;51.632;4.950;2022-08-01T15:08:20;26.80;1.00
21331;DHT22;10824;51.632;4.950;2022-08-01T15:10:48;26.90;1.00
21331;DHT22;10824;51.632;4.950;2022-08-01T15:13:15;26.80;1.00
21331;DHT22;10824;51.632;4.950;2022-08-01T15:15:42;27.20;1.00
21331;DHT22;10824;51.632;4.950;2022-08-01T15:18:09;26.80;1.00
21331;DHT22;10824;51.632;4.950;2022-08-01T15:20:37;27.00;1.00
21331;DHT22;10824;51.632;4.950;2022-08-01T15:23:04;25.90;1.00
21331;DHT22;10824;51.632;4.950;2022-08-01T15:25:31;26.30;1.00
21331;DHT22;10824;51.632;4.950;2022-08-01T15:28:10;26.60;1.00
21331;DHT22;10824;51.632;4.950;2022-08-01T15:30:39;26.90;1.00
21331;DHT22;10824;51.632;4.950;2022-08-01T15:33:08;27.00;1.00
21331;DHT22;10824;51.632;4.950;2022-08-01T15:35:35;27.20;1.00
21331;DHT22;10824;51.632;4.950;2022-08-01T15:38:02;26.20;1.00
21331;DHT22;10824;51.632;4.950;2022-08-01T15:40:29;26.30;1.00
21331;DHT22;10824;51.632;4.950;2022-08-01T15:43:02;26.80;1.00
21331;DHT22;10824;51.632;4.950;2022-08-01T15:45:29;27.40;1.00
21331;DHT22;10824;51.632;4.950;2022-08-01T15:48:14;26.70;1.00
21331;DHT22;10824;51.632;4.950;2022-08-01T15:50:42;26.20;1.00
21331;DHT22;10824;51.632;4.950;2022-08-01T15:53:09;26.40;1.00
21331;DHT22;10824;51.632;4.950;2022-08-01T15:55:38;26.80;1.00
21331;DHT22;10824;51.632;4.950;2022-08-01T15:58:06;27.30;1.00
21331;DHT22;10824;51.632;4.950;2022-08-01T16:00:33;27.20;1.00
21331;DHT22;10824;51.632;4.950;2022-08-01T16:03:06;26.70;1.00
21331;DHT22;10824;51.632;4.950;2022-08-01T16:05:44;26.60;1.00
21331;DHT22;10824;51.632;4.950;2022-08-01T16:08:12;26.20;1.00
21331;DHT22;10824;51.632;4.950;2022-08-01T16:10:40;26.40;1.00
21331;DHT22;10824;51.632;4.950;2022-08-01T16:13:07;26.00;1.00
21331;DHT22;10824;51.632;4.950;2022-08-01T16:15:35;26.40;1.00
21331;DHT22;10824;51.632;4.950;2022-08-01T16:18:08;26.40;1.00
21331;DHT22;10824;51.632;4.950;2022-08-01T16:20:36;26.20;1.00
21331;DHT22;10824;51.632;4.950;2022-08-01T16:23:11;26.30;1.00
21331;DHT22;10824;51.632;4.950;2022-08-01T16:25:38;26.10;1.00
21331;DHT22;10824;51.632;4.950;2022-08-01T16:28:05;26.10;1.00
21331;DHT22;10824;51.632;4.950;2022-08-01T16:30:32;26.60;1.00
21331;DHT22;10824;51.632;4.950;2022-08-01T16:32:59;26.20;1.00
21331;DHT22;10824;51.632;4.950;2022-08-01T16:35:34;25.90;1.00
21331;DHT22;10824;51.632;4.950;2022-08-01T16:38:06;26.40;1.00
21331;DHT22;10824;51.632;4.950;2022-08-01T16:40:33;26.50;1.00
21331;DHT22;10824;51.632;4.950;2022-08-01T16:43:14;26.60;1.00